createdAt,value
2023-02-11T00:01:42.446Z,-3.82
2023-02-11T00:04:11.132Z,-3.94
2023-02-11T00:06:39.628Z,-4.00
2023-02-11T00:09:08.708Z,-4.03
2023-02-11T00:11:37.413Z,-4.05
2023-02-11T00:14:09.095Z,-4.09
2023-02-11T00:16:37.729Z,-4.14
2023-02-11T00:19:07.090Z,-4.17
2023-02-11T00:21:36.328Z,-4.21
2023-02-11T00:26:58.660Z,-4.31
2023-02-11T00:29:28.539Z,-4.34
2023-02-11T00:31:57.149Z,-4.38
2023-02-11T00:34:25.757Z,-4.41
2023-02-11T00:36:55.194Z,-4.42
2023-02-11T00:39:48.439Z,-4.45
2023-02-11T00:42:17.121Z,-4.50
2023-02-11T00:44:47.367Z,-4.53
2023-02-11T00:47:15.863Z,-4.54
2023-02-11T00:49:44.900Z,-4.58
2023-02-11T00:52:13.807Z,-4.63
2023-02-11T00:54:42.997Z,-4.63
2023-02-11T00:57:15.761Z,-4.70
2023-02-11T00:59:47.955Z,-4.70
2023-02-11T01:02:16.761Z,-4.70
2023-02-11T01:04:45.448Z,-4.90
2023-02-11T01:07:14.074Z,-4.73
2023-02-11T01:09:42.689Z,-4.74
2023-02-11T01:12:11.442Z,-4.81
2023-02-11T01:14:47.629Z,-4.83
2023-02-11T01:17:16.737Z,-4.90
2023-02-11T01:19:45.469Z,-4.91
2023-02-11T01:22:14.317Z,-4.89
2023-02-11T01:24:43.023Z,-4.93
2023-02-11T01:27:11.660Z,-4.93
2023-02-11T01:29:40.189Z,-4.88
2023-02-11T01:32:10.613Z,-4.91
2023-02-11T01:34:47.036Z,-4.87
2023-02-11T01:37:15.753Z,-4.86
2023-02-11T01:39:46.466Z,-4.88
2023-02-11T01:42:17.748Z,-4.85
2023-02-11T01:44:46.514Z,-4.90
2023-02-11T01:47:16.354Z,-4.78
2023-02-11T01:49:47.466Z,-4.81
2023-02-11T01:52:20.305Z,-4.83
2023-02-11T01:55:09.407Z,-4.91
2023-02-11T01:57:40.630Z,-4.89
2023-02-11T02:00:12.370Z,-4.86
2023-02-11T02:02:46.102Z,-4.81
2023-02-11T02:05:23.138Z,-4.78
2023-02-11T02:07:57.540Z,-4.74
2023-02-11T02:10:32.709Z,-4.74
2023-02-11T02:13:01.159Z,-4.75
2023-02-11T02:15:31.897Z,-4.71
2023-02-11T02:18:11.770Z,-4.73
2023-02-11T02:21:28.099Z,-4.82
2023-02-11T02:24:11.491Z,-4.83
2023-02-11T02:27:00.456Z,-4.82
2023-02-11T02:29:52.619Z,-4.77
2023-02-11T02:32:43.678Z,-4.74
2023-02-11T02:35:20.808Z,-4.20
2023-02-11T02:37:53.581Z,-3.85
2023-02-11T02:40:27.469Z,-3.35
2023-02-11T02:42:56.681Z,-2.93
2023-02-11T02:45:25.325Z,-2.79
2023-02-11T02:47:55.178Z,-2.75
2023-02-11T02:50:30.401Z,-2.30
2023-02-11T02:53:10.193Z,-2.20
2023-02-11T02:55:46.073Z,-2.12
2023-02-11T02:58:35.429Z,-1.98
2023-02-11T03:01:10.352Z,-2.01
2023-02-11T03:03:44.873Z,-2.09
2023-02-11T03:06:19.879Z,-2.08
2023-02-11T03:08:51.160Z,-2.01
2023-02-11T03:11:21.578Z,-1.88
2023-02-11T03:13:51.304Z,-1.81
2023-02-11T03:16:22.805Z,-1.83
2023-02-11T03:19:01.310Z,-1.92
2023-02-11T03:21:31.045Z,-2.03
2023-02-11T03:24:03.192Z,-2.06
2023-02-11T03:26:35.534Z,-2.11
2023-02-11T03:29:08.105Z,-1.97
2023-02-11T03:31:41.818Z,-1.90
2023-02-11T03:34:16.636Z,-1.85
2023-02-11T03:36:49.890Z,-1.82
2023-02-11T03:39:24.388Z,-1.85
2023-02-11T03:42:02.055Z,-1.95
2023-02-11T03:44:34.713Z,-2.31
2023-02-11T03:47:05.376Z,-1.86
2023-02-11T03:49:36.000Z,-1.87
2023-02-11T03:52:06.178Z,-1.92
2023-02-11T03:54:35.200Z,-1.91
2023-02-11T03:57:04.574Z,-1.69
2023-02-11T03:59:33.363Z,-1.52
2023-02-11T04:02:01.997Z,-1.46
2023-02-11T04:04:31.154Z,-1.30
2023-02-11T04:07:01.013Z,-1.19
2023-02-11T04:09:29.679Z,-1.31
2023-02-11T04:11:58.278Z,-1.47
2023-02-11T04:14:26.691Z,-1.58
2023-02-11T04:16:57.819Z,-1.69
2023-02-11T04:19:26.424Z,-1.78
2023-02-11T04:21:55.774Z,-1.82
2023-02-11T04:24:25.656Z,-1.58
2023-02-11T04:26:54.296Z,-1.35
2023-02-11T04:29:22.880Z,-1.16
2023-02-11T04:31:51.656Z,-1.13
2023-02-11T04:34:20.430Z,-1.01
2023-02-11T04:36:50.055Z,-0.91
2023-02-11T04:39:18.949Z,-0.85
2023-02-11T04:41:48.962Z,-0.65
2023-02-11T04:44:17.804Z,-0.65
2023-02-11T04:46:46.613Z,-0.53
2023-02-11T04:49:16.686Z,-0.49
2023-02-11T04:51:49.161Z,-0.52
2023-02-11T04:54:18.452Z,-0.49
2023-02-11T04:56:48.337Z,-0.48
2023-02-11T04:59:17.198Z,-0.53
2023-02-11T05:01:45.652Z,-0.49
2023-02-11T05:04:14.315Z,-0.47
2023-02-11T05:06:42.626Z,-0.52
2023-02-11T05:09:13.066Z,-0.38
2023-02-11T05:11:41.922Z,-0.43
2023-02-11T05:14:18.620Z,-0.41
2023-02-11T05:16:47.492Z,-0.39
2023-02-11T05:19:16.447Z,-0.39
2023-02-11T05:22:00.219Z,-0.31
2023-02-11T05:24:31.794Z,-0.42
2023-02-11T05:27:00.351Z,-0.49
2023-02-11T05:29:30.877Z,-0.41
2023-02-11T05:32:00.503Z,-0.30
2023-02-11T05:34:29.112Z,-0.31
2023-02-11T05:36:57.766Z,-0.20
2023-02-11T05:39:26.883Z,-0.22
2023-02-11T05:41:55.389Z,-0.24
2023-02-11T05:44:23.874Z,-0.22
2023-02-11T05:46:53.838Z,-0.26
2023-02-11T05:49:22.114Z,-0.36
2023-02-11T05:51:50.860Z,-0.22
2023-02-11T05:54:19.477Z,-0.04
2023-02-11T05:56:47.960Z,-0.01
2023-02-11T05:59:16.786Z,-0.04
2023-02-11T06:01:45.567Z,-0.03
2023-02-11T06:04:15.959Z,-0.03
2023-02-11T06:06:44.803Z,-0.07
2023-02-11T06:09:15.238Z,-0.03
2023-02-11T06:11:46.891Z,0.03
2023-02-11T06:14:15.548Z,0.03
2023-02-11T06:16:44.328Z,-0.04
2023-02-11T06:19:12.839Z,0.06
2023-02-11T06:21:44.483Z,-0.01
2023-02-11T06:24:13.738Z,-0.06
2023-02-11T06:26:42.801Z,0.14
2023-02-11T06:29:11.615Z,0.17
2023-02-11T06:31:40.534Z,0.21
2023-02-11T06:34:09.647Z,0.20
2023-02-11T06:36:39.221Z,0.31
2023-02-11T06:39:09.360Z,0.38
2023-02-11T06:41:37.966Z,0.35
2023-02-11T06:44:09.547Z,0.43
2023-02-11T06:46:38.198Z,0.48
2023-02-11T06:49:07.150Z,0.55
2023-02-11T06:51:35.703Z,0.58
2023-02-11T06:54:06.189Z,0.77
2023-02-11T06:56:37.124Z,0.95
2023-02-11T06:59:06.121Z,0.81
2023-02-11T07:01:36.929Z,0.79
2023-02-11T07:04:05.911Z,0.81
2023-02-11T07:06:37.812Z,0.87
2023-02-11T07:09:06.967Z,0.96
2023-02-11T07:11:51.604Z,1.03
2023-02-11T07:14:20.293Z,1.07
2023-02-11T07:17:16.858Z,1.07
2023-02-11T07:19:45.792Z,1.08
2023-02-11T07:22:17.384Z,1.06
2023-02-11T07:24:46.163Z,1.09
2023-02-11T07:27:19.936Z,1.05
2023-02-11T07:29:49.084Z,1.09
2023-02-11T07:32:17.918Z,1.14
2023-02-11T07:34:48.223Z,1.14
2023-02-11T07:37:16.955Z,1.18
2023-02-11T07:39:45.701Z,1.27
2023-02-11T07:43:13.004Z,1.20
2023-02-11T07:45:42.942Z,1.27
2023-02-11T07:48:11.356Z,1.26
2023-02-11T07:50:41.751Z,1.41
2023-02-11T07:53:10.377Z,1.51
2023-02-11T07:55:39.057Z,1.47
2023-02-11T07:58:07.635Z,1.55
2023-02-11T08:00:36.185Z,1.57
2023-02-11T08:03:08.506Z,1.75
2023-02-11T08:05:39.667Z,1.73
2023-02-11T08:08:08.321Z,1.79
2023-02-11T08:10:37.451Z,1.94
2023-02-11T08:13:06.421Z,2.07
2023-02-11T08:15:35.201Z,2.32
2023-02-11T08:18:03.659Z,2.65
2023-02-11T08:20:33.664Z,2.89
2023-02-11T08:23:03.113Z,3.26
2023-02-11T08:25:31.575Z,3.40
2023-02-11T08:28:00.457Z,3.46
2023-02-11T08:30:31.937Z,3.35
2023-02-11T08:33:00.579Z,3.16
2023-02-11T08:35:29.751Z,2.97
2023-02-11T08:37:59.731Z,2.91
2023-02-11T08:40:28.877Z,2.89
2023-02-11T08:42:57.268Z,2.73
2023-02-11T08:45:25.733Z,2.64
2023-02-11T08:47:54.197Z,2.58
2023-02-11T08:50:22.957Z,2.49
2023-02-11T08:52:52.747Z,2.31
2023-02-11T08:55:22.544Z,2.40
2023-02-11T08:57:51.593Z,2.36
2023-02-11T09:00:21.050Z,2.42
2023-02-11T09:02:49.680Z,2.49
2023-02-11T09:05:19.811Z,2.59
2023-02-11T09:07:50.668Z,2.74
2023-02-11T09:10:19.278Z,2.92
2023-02-11T09:14:03.200Z,3.00
2023-02-11T09:16:35.228Z,3.17
2023-02-11T09:19:06.463Z,3.17
2023-02-11T09:21:35.279Z,3.17
2023-02-11T09:24:03.970Z,3.17
2023-02-11T09:26:34.701Z,3.06
2023-02-11T09:29:03.691Z,3.26
2023-02-11T09:31:35.098Z,3.31
2023-02-11T09:34:09.760Z,3.36
2023-02-11T09:36:41.389Z,3.27
2023-02-11T09:39:18.941Z,3.23
2023-02-11T09:42:01.983Z,3.22
2023-02-11T09:44:34.298Z,3.10
2023-02-11T09:47:07.087Z,3.22
2023-02-11T09:49:41.556Z,3.27
2023-02-11T09:52:15.702Z,3.19
2023-02-11T09:54:54.054Z,3.27
2023-02-11T09:57:28.648Z,3.53
2023-02-11T09:59:58.223Z,3.76
2023-02-11T10:02:32.612Z,3.91
2023-02-11T10:05:15.524Z,4.17
2023-02-11T10:07:49.939Z,4.38
2023-02-11T10:10:28.870Z,4.60
2023-02-11T10:13:16.930Z,4.60
2023-02-11T10:15:49.956Z,4.62
2023-02-11T10:18:41.705Z,4.64
2023-02-11T10:21:20.707Z,4.42
2023-02-11T10:23:53.032Z,4.79
2023-02-11T10:26:23.876Z,4.62
2023-02-11T10:28:56.616Z,4.59
2023-02-11T10:31:27.769Z,4.39
2023-02-11T10:34:03.317Z,4.34
2023-02-11T10:36:35.439Z,4.11
2023-02-11T10:39:12.781Z,3.85
2023-02-11T10:41:47.827Z,3.83
2023-02-11T10:44:25.283Z,3.84
2023-02-11T10:46:57.243Z,3.80
2023-02-11T10:49:48.440Z,3.91
2023-02-11T10:52:22.316Z,3.96
2023-02-11T10:54:58.890Z,4.02
2023-02-11T10:57:30.380Z,3.62
2023-02-11T11:00:04.208Z,3.79
2023-02-11T11:02:36.338Z,3.73
2023-02-11T11:05:45.345Z,3.92
2023-02-11T11:08:16.312Z,3.84
2023-02-11T11:10:51.383Z,4.00
2023-02-11T11:13:32.410Z,4.26
2023-02-11T11:16:18.515Z,4.39
2023-02-11T11:18:48.398Z,4.65
2023-02-11T11:21:19.745Z,4.67
2023-02-11T11:24:19.146Z,5.09
2023-02-11T11:26:50.421Z,4.99
2023-02-11T11:29:20.484Z,4.87
2023-02-11T11:31:53.017Z,5.11
2023-02-11T11:34:25.420Z,5.02
2023-02-11T11:36:54.122Z,4.71
2023-02-11T11:39:26.298Z,4.58
2023-02-11T11:41:58.073Z,4.44
2023-02-11T11:44:32.982Z,4.96
2023-02-11T11:47:19.161Z,5.37
2023-02-11T11:49:52.289Z,5.97
2023-02-11T11:52:26.763Z,6.84
2023-02-11T11:55:23.109Z,6.55
2023-02-11T11:57:52.173Z,7.13
2023-02-11T12:00:25.001Z,6.88
2023-02-11T12:03:14.379Z,7.31
2023-02-11T12:05:45.898Z,7.80
2023-02-11T12:08:19.737Z,7.66
2023-02-11T12:10:58.419Z,7.39
2023-02-11T12:13:37.502Z,7.12
2023-02-11T12:16:13.909Z,6.81
2023-02-11T12:19:17.454Z,6.73
2023-02-11T12:21:51.230Z,6.87
2023-02-11T12:25:07.144Z,6.64
2023-02-11T12:27:45.407Z,6.31
2023-02-11T12:30:23.043Z,6.42
2023-02-11T12:32:58.374Z,6.61
2023-02-11T12:35:49.724Z,6.49
2023-02-11T12:38:27.533Z,6.63
2023-02-11T12:41:45.408Z,6.77
2023-02-11T12:44:24.465Z,7.50
2023-02-11T12:46:58.368Z,7.39
2023-02-11T12:49:39.748Z,6.91
2023-02-11T12:52:20.993Z,6.61
2023-02-11T12:54:55.551Z,6.37
2023-02-11T12:57:43.620Z,6.67
2023-02-11T13:00:19.719Z,6.34
2023-02-11T13:02:54.624Z,6.91
2023-02-11T13:05:29.749Z,7.95
2023-02-11T13:08:03.948Z,7.98
2023-02-11T13:10:35.240Z,7.75
2023-02-11T13:13:17.954Z,6.84
2023-02-11T13:15:54.041Z,5.48
2023-02-11T13:18:51.403Z,4.92
2023-02-11T13:21:44.968Z,4.66
2023-02-11T13:24:21.574Z,4.27
2023-02-11T13:26:55.842Z,4.25
2023-02-11T13:29:31.442Z,4.21
2023-02-11T13:32:10.273Z,4.23
2023-02-11T13:35:27.821Z,4.26
2023-02-11T13:38:00.021Z,4.17
2023-02-11T13:40:31.225Z,4.22
2023-02-11T13:43:04.137Z,4.18
2023-02-11T13:45:37.492Z,4.06
2023-02-11T13:48:10.315Z,4.24
2023-02-11T13:50:40.590Z,4.19
2023-02-11T13:53:44.020Z,4.18
2023-02-11T13:56:27.194Z,4.41
2023-02-11T13:59:00.782Z,4.09
2023-02-11T14:02:23.322Z,3.93
2023-02-11T14:05:41.134Z,3.95
2023-02-11T14:08:37.504Z,4.03
2023-02-11T14:11:12.454Z,4.08
2023-02-11T14:14:17.487Z,3.95
2023-02-11T14:17:25.365Z,3.96
2023-02-11T14:19:54.170Z,3.80
2023-02-11T14:22:27.323Z,3.69
2023-02-11T14:24:58.308Z,3.69
2023-02-11T14:27:47.661Z,3.72
2023-02-11T14:30:36.539Z,3.90
2023-02-11T14:33:38.312Z,3.90
2023-02-11T14:36:16.056Z,3.89
2023-02-11T14:38:57.619Z,3.83
2023-02-11T14:41:27.641Z,3.91
2023-02-11T14:44:00.294Z,3.93
2023-02-11T14:46:33.315Z,4.00
2023-02-11T14:49:08.057Z,3.87
2023-02-11T14:51:41.264Z,3.77
2023-02-11T14:54:17.145Z,3.86
2023-02-11T14:56:47.697Z,3.94
2023-02-11T14:59:21.493Z,3.81
2023-02-11T15:01:55.765Z,3.62
2023-02-11T15:04:26.626Z,3.69
2023-02-11T15:06:56.001Z,3.57
2023-02-11T15:09:32.477Z,3.42
2023-02-11T15:12:01.542Z,3.47
2023-02-11T15:14:34.626Z,3.38
2023-02-11T15:17:05.338Z,3.35
2023-02-11T15:19:36.497Z,3.37
2023-02-11T15:22:06.038Z,3.21
2023-02-11T15:24:39.704Z,3.23
2023-02-11T15:27:16.450Z,3.18
2023-02-11T15:29:49.443Z,3.28
2023-02-11T15:32:19.970Z,3.14
2023-02-11T15:34:50.274Z,3.18
2023-02-11T15:37:22.058Z,3.12
2023-02-11T15:39:53.052Z,3.20
2023-02-11T15:42:24.699Z,3.21
2023-02-11T15:45:12.100Z,3.04
2023-02-11T15:47:50.042Z,3.01
2023-02-11T15:50:22.146Z,2.97
2023-02-11T15:52:51.504Z,2.92
2023-02-11T15:55:22.209Z,2.94
2023-02-11T15:57:57.992Z,2.91
2023-02-11T16:00:30.558Z,2.88
2023-02-11T16:02:59.054Z,2.90
2023-02-11T16:05:33.500Z,2.83
2023-02-11T16:08:14.023Z,2.77
2023-02-11T16:10:59.573Z,2.73
2023-02-11T16:13:30.900Z,2.78
2023-02-11T16:16:02.695Z,2.74
2023-02-11T16:18:39.100Z,2.75
2023-02-11T16:21:18.166Z,2.83
2023-02-11T16:23:52.875Z,2.84
2023-02-11T16:26:27.935Z,2.80
2023-02-11T16:29:05.618Z,2.75
2023-02-11T16:31:36.107Z,2.73
2023-02-11T16:34:09.842Z,2.71
2023-02-11T16:36:47.945Z,2.68
2023-02-11T16:39:17.036Z,2.54
2023-02-11T16:41:52.084Z,2.51
2023-02-11T16:44:21.330Z,2.47
2023-02-11T16:46:53.665Z,2.40
2023-02-11T16:49:24.394Z,2.35
2023-02-11T16:51:58.655Z,2.33
2023-02-11T16:54:30.732Z,2.31
2023-02-11T16:57:01.549Z,2.34
2023-02-11T16:59:33.250Z,2.35
2023-02-11T17:02:01.866Z,2.44
2023-02-11T17:04:34.259Z,2.37
2023-02-11T17:07:03.506Z,2.40
2023-02-11T17:09:32.614Z,2.32
2023-02-11T17:12:02.935Z,2.25
2023-02-11T17:14:31.914Z,2.25
2023-02-11T17:17:02.618Z,2.26
2023-02-11T17:19:31.509Z,2.21
2023-02-11T17:21:59.992Z,2.18
2023-02-11T17:24:28.665Z,2.11
2023-02-11T17:26:57.545Z,2.12
2023-02-11T17:29:28.190Z,2.12
2023-02-11T17:31:57.316Z,2.10
2023-02-11T17:34:25.966Z,2.10
2023-02-11T17:36:57.073Z,2.08
2023-02-11T17:39:26.260Z,2.12
2023-02-11T17:41:55.138Z,2.07
2023-02-11T17:44:23.670Z,2.05
2023-02-11T17:46:56.013Z,2.04
2023-02-11T17:49:30.647Z,2.01
2023-02-11T17:52:15.428Z,2.05
2023-02-11T17:54:47.283Z,2.06
2023-02-11T17:57:16.291Z,2.06
2023-02-11T17:59:47.372Z,2.00
2023-02-11T18:02:17.540Z,1.95
2023-02-11T18:04:46.340Z,1.94
2023-02-11T18:07:16.018Z,1.99
2023-02-11T18:09:45.664Z,2.03
2023-02-11T18:12:14.540Z,1.99
2023-02-11T18:14:45.093Z,1.96
2023-02-11T18:17:16.585Z,1.93
2023-02-11T18:19:48.360Z,1.94
2023-02-11T18:22:17.118Z,1.93
2023-02-11T18:24:52.929Z,1.93
2023-02-11T18:27:22.167Z,2.00
2023-02-11T18:29:51.117Z,1.91
2023-02-11T18:32:19.936Z,1.91
2023-02-11T18:34:50.223Z,1.95
2023-02-11T18:37:18.701Z,1.97
2023-02-11T18:39:47.457Z,1.98
2023-02-11T18:42:16.166Z,1.96
2023-02-11T18:44:45.174Z,1.94
2023-02-11T18:47:14.303Z,1.95
2023-02-11T18:49:42.879Z,1.93
2023-02-11T18:52:13.577Z,1.99
2023-02-11T18:54:42.830Z,1.94
2023-02-11T18:57:11.897Z,1.96
2023-02-11T18:59:46.610Z,2.10
2023-02-11T19:02:15.532Z,2.03
2023-02-11T19:04:44.674Z,1.95
2023-02-11T19:07:15.600Z,1.94
2023-02-11T19:09:46.328Z,2.00
2023-02-11T19:12:17.116Z,1.93
2023-02-11T19:14:46.048Z,1.92
2023-02-11T19:17:16.336Z,1.91
2023-02-11T19:19:46.706Z,1.93
2023-02-11T19:22:19.159Z,1.95
2023-02-11T19:24:48.471Z,1.95
2023-02-11T19:27:17.385Z,2.08
2023-02-11T19:29:46.073Z,2.09
2023-02-11T19:32:17.259Z,2.13
2023-02-11T19:34:46.393Z,2.11
2023-02-11T19:37:16.714Z,2.07
2023-02-11T19:39:45.695Z,2.07
2023-02-11T19:42:15.022Z,2.03
2023-02-11T19:44:43.768Z,2.09
2023-02-11T19:47:15.273Z,2.06
2023-02-11T19:49:44.249Z,2.06
2023-02-11T19:52:14.332Z,2.02
2023-02-11T19:54:47.934Z,2.01
2023-02-11T19:57:31.776Z,2.02
2023-02-11T20:00:03.702Z,2.12
2023-02-11T20:02:32.132Z,2.19
2023-02-11T20:05:00.861Z,2.22
2023-02-11T20:07:31.098Z,2.19
2023-02-11T20:10:01.610Z,2.26
2023-02-11T20:12:30.427Z,2.22
2023-02-11T20:14:59.377Z,2.26
2023-02-11T20:17:28.449Z,2.32
2023-02-11T20:20:01.186Z,2.32
2023-02-11T20:22:29.981Z,2.30
2023-02-11T20:24:59.197Z,2.24
2023-02-11T20:27:29.659Z,2.24
2023-02-11T20:29:58.479Z,2.21
2023-02-11T20:32:28.038Z,2.31
2023-02-11T20:35:02.381Z,2.36
2023-02-11T20:37:30.848Z,2.32
2023-02-11T20:40:01.270Z,2.40
2023-02-11T20:42:32.146Z,2.37
2023-02-11T20:45:01.246Z,2.46
2023-02-11T20:47:30.330Z,2.39
2023-02-11T20:50:01.840Z,2.42
2023-02-11T20:52:33.197Z,2.43
2023-02-11T20:55:02.334Z,2.48
2023-02-11T20:57:35.324Z,2.48
2023-02-11T21:00:08.229Z,2.43
2023-02-11T21:02:44.277Z,2.42
2023-02-11T21:05:13.617Z,2.41
2023-02-11T21:07:42.314Z,2.51
2023-02-11T21:10:12.383Z,2.44
2023-02-11T21:12:42.491Z,2.43
2023-02-11T21:15:14.507Z,2.43
2023-02-11T21:17:43.254Z,2.43
2023-02-11T21:20:21.089Z,2.46
2023-02-11T21:22:49.620Z,2.50
2023-02-11T21:25:18.399Z,2.46
2023-02-11T21:27:48.542Z,2.50
2023-02-11T21:30:19.284Z,2.47
2023-02-11T21:32:48.106Z,2.44
2023-02-11T21:38:01.509Z,2.42
2023-02-11T21:40:30.235Z,2.45
2023-02-11T21:43:00.184Z,2.51
2023-02-11T21:45:32.417Z,2.59
2023-02-11T21:48:01.654Z,2.51
2023-02-11T21:50:30.509Z,2.51
2023-02-11T21:52:59.212Z,2.53
2023-02-11T21:55:27.760Z,2.60
2023-02-11T21:57:56.542Z,2.60
2023-02-11T22:00:26.717Z,2.63
2023-02-11T22:02:55.535Z,2.57
2023-02-11T22:05:24.477Z,2.62
2023-02-11T22:07:54.051Z,2.65
2023-02-11T22:10:48.584Z,2.64
2023-02-11T22:13:17.196Z,2.60
2023-02-11T22:15:47.502Z,2.63
2023-02-11T22:18:16.076Z,2.57
2023-02-11T22:20:45.061Z,2.58
2023-02-11T22:23:36.525Z,2.55
2023-02-11T22:26:06.595Z,2.58
2023-02-11T22:28:37.563Z,2.59
2023-02-11T22:31:12.490Z,2.54
2023-02-11T22:36:52.914Z,2.54
2023-02-11T22:39:21.613Z,2.61
2023-02-11T22:41:50.291Z,2.63
2023-02-11T22:44:33.225Z,2.62
2023-02-11T22:47:03.914Z,2.63
2023-02-11T22:49:33.493Z,2.61
2023-02-11T22:52:02.107Z,2.63
2023-02-11T22:54:31.634Z,2.69
2023-02-11T22:57:00.494Z,2.69
2023-02-11T22:59:29.125Z,2.67
2023-02-11T23:01:57.950Z,2.61
2023-02-11T23:04:28.005Z,2.58
2023-02-11T23:06:56.944Z,2.61
2023-02-11T23:09:25.559Z,2.58
2023-02-11T23:11:58.123Z,2.55
2023-02-11T23:14:29.787Z,2.58
2023-02-11T23:16:58.796Z,2.58
2023-02-11T23:19:28.931Z,2.59
2023-02-11T23:21:57.745Z,2.62
2023-02-11T23:24:26.271Z,2.59
2023-02-11T23:26:54.855Z,2.61
2023-02-11T23:29:23.697Z,2.57
2023-02-11T23:31:59.420Z,2.58
2023-02-11T23:34:29.745Z,2.59
2023-02-11T23:37:16.039Z,2.59
2023-02-11T23:39:45.294Z,2.63
2023-02-11T23:42:13.940Z,2.65
2023-02-11T23:44:42.792Z,2.67
2023-02-11T23:47:14.376Z,2.67
2023-02-11T23:49:44.398Z,2.70
2023-02-11T23:52:13.070Z,2.71
2023-02-11T23:54:43.604Z,2.71
2023-02-11T23:57:12.191Z,2.67
2023-02-11T23:59:43.063Z,2.72
